x

Buoy I01 - Eastern Maine Shelf (44034) Wave Buoy

10:04 - Fri 28th Apr 2017 All times are EDT. -4 hours from GMT.

  • Sig Wave height 5.2ft
  • Peak Period 8s
  • Wind
    4mph, 7mph gusts
  • Sea Temp 42°f
  • Air Temp 42°f
  • Sea Pressure 1014.1mb
  • Buoy I01 - Eastern Maine Shelf
  • Buoy I01 - Eastern Maine Shelf

More Historic Weather Station data

Upgrade to MSW Pro to gain access to the past 30 days of data for over 8000 Wavebouys and Weather Stations around the globe.

Join Pro

Comparision Forecast

View Surf forecast
   
ven. 04/28 10:04 5ft 8s 4 7 mph 1014.1mb 42f 42f
9:04 5ft 8s 4
mph
1013.9mb 41f 43f
8:04 5ft 8s 4
mph
1013.4mb 41f 42f
7:04 4.5ft 8s 4 7 mph 1013mb 41f 43f
6:04 5ft 8s 9
mph
1013.4mb 41f 43f
5:04 5ft 11s 7 9 mph 1012.2mb 41f 43f
4:04 5.5ft 8s 2 4 mph 1013.3mb 41f 43f
3:04 6.5ft 11s 4 7 mph 1013.7mb 41f 44f
2:04 5ft 11s 2
mph
1014.3mb 41f 45f
1:04 5ft 11s 4
mph
1013.9mb 41f 46f
12:04 6ft 11s 4
mph
1014.6mb 41f 43f
11:04 6ft 11s 11 13 mph 1014.6mb 41f 44f
10:04 5.5ft 11s 11 13 mph 1014.8mb 41f 44f
9:04 6ft 11s 9 11 mph 1015.3mb 41f 43f
8:04 6ft 8s 4 7 mph 1015.4mb 41f 43f
7:04 5.5ft 11s 4 7 mph 1015.6mb 41f 43f
6:04 6ft 11s 7 9 mph 1015.2mb 41f 43f
5:04 6ft 11s 9 11 mph 1015mb 41f 43f
4:04 7ft 11s 9 11 mph 1014.1mb 41f 43f
3:04 5ft 11s 7
mph
1014mb 41f 42f
2:04 7ft 11s 9 11 mph 1014.1mb 41f 42f
1:04 5.5ft 11s 7 9 mph 1014mb 41f 42f
12:04 6ft 11s 7
mph
1014.1mb 41f 42f
jeu. 04/27 11:04 6ft 11s 7 9 mph 1013.7mb 41f 43f
10:04 6ft 11s 7 9 mph 1014mb 41f 43f
9:04 7ft 11s 7
mph
1014.2mb 41f 42f
8:04 8ft 11s 9 11 mph 1014mb 40f 42f
7:04 9ft 11s 9 11 mph 1013.4mb 41f 42f
6:04 7.5ft 11s 9 11 mph 1013.8mb 41f 42f
5:04 6.5ft 11s 9
mph
1013.8mb 41f 42f
4:04 7ft 11s 7
mph
1013.7mb 41f 42f
3:04 7.5ft 11s 9 11 mph 1014.1mb 41f 42f
2:04 7ft 11s 7 9 mph 1014mb 41f 42f
1:04 7.5ft 11s 4 7 mph 1013.5mb 41f 43f
12:04 7ft 11s 9 11 mph 1013.7mb 40f 43f
11:04 7ft 11s 9 11 mph 1014mb 40f 43f
10:04 7ft 11s 11
mph
1014.2mb 40f 43f
9:04 8ft 11s 11
mph
1014mb 40f 43f
8:04 7.5ft 11s 7 9 mph 1014.3mb 40f 43f
7:04 8.5ft 11s 7 9 mph 1014.7mb 40f 43f
6:04 10ft 11s 7 9 mph 1014mb 40f 43f
5:04 9ft 11s 2 4 mph 1013.3mb 40f 44f
4:04 9ft 11s 4 7 mph 1013.4mb 40f 44f
3:04 9ft 11s 16 18 mph 1012.4mb 40f 45f
2:04 8ft 11s 16 18 mph 1012.5mb 40f 45f
1:04 8ft 11s 18 20 mph 1012.8mb 40f 46f
12:04 8ft 11s 20 22 mph 1013mb 40f 46f
mer. 04/26 11:04 7.5ft 8s 18 20 mph 1013.5mb 40f 46f
10:04 8.5ft 8s 13 16 mph 1014.3mb 40f 45f
9:04 9ft 11s 16 20 mph 1014.6mb 40f 45f
8:04 9ft 11s 18 20 mph 1014.3mb 40f 46f
7:04 9ft 11s 18 20 mph 1014.3mb 40f 46f
6:04 7ft 11s 18 20 mph 1014.5mb 40f 46f
5:04 6ft 11s 16 20 mph 1014.6mb 40f 46f
4:04 6ft 11s 18 20 mph 1014.6mb 40f 47f
3:04 6ft 6s 18 20 mph 1014.9mb 40f 46f
2:04 5ft 6s 16 18 mph 1015.3mb 41f 46f
1:04 5ft 6s 16 18 mph 1016.1mb 41f 45f
12:04 5ft 6s 16 18 mph 1016.5mb 40f 45f
11:04 5.5ft 6s 18 20 mph 1016.8mb 40f 45f
10:04 5.5ft 6s 16 18 mph 1017.1mb 40f 44f
9:04 5ft 6s 16 20 mph 1017.5mb 40f 45f
8:04 6ft 6s 20 22 mph 1017.5mb 41f 44f
7:04 5ft 6s 20 25 mph 1017.8mb 41f 44f
6:04 5ft 6s 20 27 mph 1018.1mb 41f 44f
5:04 5ft 5s 18 22 mph 1018.9mb 41f 43f
4:04 4.5ft 5s 18 22 mph 1019.9mb 41f 43f
3:04 5.5ft 6s 18 20 mph 1021mb 41f 43f
2:04 5ft 5s 18 20 mph 1021.7mb 41f 43f
1:04 5.5ft 6s 20 22 mph 1022.2mb 41f 42f
12:04 5ft 6s 18 22 mph 1023.2mb 40f 42f
mar. 04/25 11:04 4.5ft 6s 18 20 mph 1024mb 40f 42f
10:04 4.5ft 5s 16 18 mph 1025mb 40f 43f
9:04 4.5ft 6s 11 13 mph 1025.5mb 40f 42f
8:04 3.5ft 5s 11 13 mph 1026mb 40f 42f
7:04 3.5ft 5s 13 16 mph 1026.5mb 40f 42f
6:04 3.5ft 5s 16 18 mph 1026.8mb 40f 42f
5:04 4ft 5s 16 20 mph 1027.6mb 40f 41f
4:04 4ft 5s 18 20 mph 1027.9mb 41f 41f
3:04 4ft 5s 18 20 mph 1028.4mb 41f 41f
2:04 4ft 5s 18 20 mph 1028.8mb 41f 41f
1:04 4ft 5s 16 18 mph 1029.2mb 40f 41f
12:04 4.5ft 5s 20 25 mph 1029.3mb 40f 41f
11:04 4.5ft 5s 20 25 mph 1029.3mb 41f 41f
10:04 3.5ft 5s 18 22 mph 1029.2mb 41f 41f
9:04 2.5ft 4s 20 22 mph 1028.8mb 41f 41f
8:04 2ft 3s 20 25 mph 1028.4mb 41f 41f
7:04 1.6ft 4s 16 20 mph 1028.3mb 41f 40f
6:04 1.3ft 5s 13 16 mph 1027.5mb 41f 39f
5:04 2ft 8s 11
mph
1027mb 42f 39f
4:04 1ft 5s 7 9 mph 1026.7mb 42f 39f